Time;durP1;ratioP1;P1;durP2;ratioP2;P2;SDS_P1;SDS_P2;PMS_P1;PMS_P2;Temp;Humidity;BMP_temperature;BMP_pressure;BME280_temperature;BME280_humidity;BME280_pressure;Samples;Min_cycle;Max_cycle;Signal;HPM_P1;HPM_P2
2024/02/15 00:01:26;;;;;;;9.63;4.90;;;10.30;99.90;;;;;;5045724;28;20174;-67
2024/02/15 00:03:52;;;;;;;7.57;3.80;;;10.30;99.90;;;;;;5048164;28;20431;-67
2024/02/15 00:06:19;;;;;;;9.13;3.83;;;10.30;99.90;;;;;;5050279;28;20062;-67
2024/02/15 00:08:45;;;;;;;8.65;4.05;;;10.30;99.90;;;;;;5048082;28;20291;-67
2024/02/15 00:11:10;;;;;;;9.32;4.00;;;10.30;99.90;;;;;;5044800;28;20025;-67
2024/02/15 00:13:36;;;;;;;8.52;3.95;;;10.30;99.90;;;;;;5052917;28;20021;-68
2024/02/15 00:16:02;;;;;;;7.72;4.10;;;10.30;99.90;;;;;;5047274;28;20422;-67
2024/02/15 00:18:27;;;;;;;8.07;4.20;;;10.30;99.90;;;;;;5037048;28;20037;-68
2024/02/15 00:20:53;;;;;;;9.10;4.18;;;10.30;99.90;;;;;;5048209;28;20079;-67
2024/02/15 00:23:18;;;;;;;8.02;4.13;;;10.30;99.90;;;;;;5058158;28;20032;-67
2024/02/15 00:25:44;;;;;;;8.95;3.72;;;10.30;99.90;;;;;;5048144;28;20492;-67
2024/02/15 00:28:13;;;;;;;9.02;3.83;;;10.30;99.90;;;;;;5062686;28;20037;-67
2024/02/15 00:30:39;;;;;;;10.27;3.92;;;10.30;99.90;;;;;;5048197;28;20039;-67
2024/02/15 00:33:05;;;;;;;9.13;3.50;;;10.30;99.90;;;;;;5048290;28;20082;-67
2024/02/15 00:35:30;;;;;;;10.18;4.28;;;10.30;99.90;;;;;;5044935;28;20032;-67
2024/02/15 00:37:57;;;;;;;6.63;3.42;;;10.30;99.90;;;;;;5050889;28;20041;-67
2024/02/15 00:40:22;;;;;;;7.70;3.25;;;10.30;99.90;;;;;;5050114;28;20464;-67
2024/02/15 00:42:48;;;;;;;11.23;4.10;;;10.30;99.90;;;;;;5045296;28;20045;-67
2024/02/15 00:45:13;;;;;;;9.38;4.05;;;10.30;99.90;;;;;;5047324;28;20178;-67
2024/02/15 00:47:41;;;;;;;9.75;4.45;;;10.30;99.90;;;;;;5046692;28;20473;-67
2024/02/15 00:50:08;;;;;;;10.38;4.15;;;10.40;99.90;;;;;;5048564;28;20028;-67
2024/02/15 00:52:34;;;;;;;10.00;4.15;;;10.40;99.90;;;;;;5044098;28;20395;-67
2024/02/15 00:54:59;;;;;;;9.90;3.92;;;10.40;99.90;;;;;;5045894;28;20397;-68
2024/02/15 00:57:25;;;;;;;7.88;3.05;;;10.30;99.90;;;;;;5048059;28;20091;-67
2024/02/15 00:59:51;;;;;;;7.88;3.47;;;10.40;99.90;;;;;;5047909;28;20051;-67
2024/02/15 01:02:17;;;;;;;8.23;3.45;;;10.40;99.90;;;;;;5047982;28;20422;-67
2024/02/15 01:04:45;;;;;;;8.13;3.45;;;10.40;99.90;;;;;;5050347;28;20029;-67
2024/02/15 01:07:10;;;;;;;9.52;4.25;;;10.40;99.90;;;;;;5051090;28;20033;-67
2024/02/15 01:09:36;;;;;;;7.68;3.67;;;10.40;99.90;;;;;;5049557;28;20090;-67
2024/02/15 01:12:03;;;;;;;8.02;3.88;;;10.40;99.90;;;;;;5028474;28;20052;-67
2024/02/15 01:14:30;;;;;;;6.50;3.33;;;10.40;99.90;;;;;;5050425;28;20050;-67
2024/02/15 01:16:56;;;;;;;7.28;3.15;;;10.40;99.90;;;;;;5058823;28;20475;-67
2024/02/15 01:19:22;;;;;;;6.78;3.47;;;10.40;99.90;;;;;;5046289;28;20128;-66
2024/02/15 01:21:47;;;;;;;6.85;3.38;;;10.50;99.90;;;;;;5048216;28;20029;-67
2024/02/15 01:24:12;;;;;;;6.93;2.45;;;10.50;99.90;;;;;;5046835;28;20135;-67
2024/02/15 01:26:38;;;;;;;7.53;3.72;;;10.40;99.90;;;;;;5044113;28;20063;-67
2024/02/15 01:29:03;;;;;;;7.75;3.60;;;10.40;99.90;;;;;;5047714;28;20036;-68
2024/02/15 01:31:29;;;;;;;7.10;3.03;;;10.50;99.90;;;;;;5048956;28;20021;-67
2024/02/15 01:33:55;;;;;;;8.25;3.83;;;10.50;99.90;;;;;;5044256;28;20091;-67
2024/02/15 01:36:20;;;;;;;8.25;3.55;;;10.50;99.90;;;;;;5039939;28;20590;-67
2024/02/15 01:38:46;;;;;;;7.50;3.10;;;10.50;99.90;;;;;;5046140;28;20033;-67
2024/02/15 01:41:11;;;;;;;6.75;3.97;;;10.50;99.90;;;;;;5046187;28;20044;-67
2024/02/15 01:43:37;;;;;;;10.30;3.95;;;10.50;99.90;;;;;;5046837;28;20029;-67
2024/02/15 01:46:09;;;;;;;7.85;3.28;;;10.50;99.90;;;;;;5034014;28;20088;-67
2024/02/15 01:48:39;;;;;;;9.45;4.35;;;10.50;99.90;;;;;;5051817;28;20098;-66
2024/02/15 01:51:06;;;;;;;7.32;3.50;;;10.50;99.90;;;;;;5046754;28;20028;-68
2024/02/15 01:53:32;;;;;;;8.73;3.45;;;10.50;99.90;;;;;;5049309;28;20183;-67
2024/02/15 01:55:59;;;;;;;10.35;4.38;;;10.50;99.90;;;;;;5043180;28;20040;-67
2024/02/15 01:58:26;;;;;;;8.05;3.63;;;10.50;99.90;;;;;;5048614;28;20767;-67
2024/02/15 02:00:53;;;;;;;9.25;4.10;;;10.50;99.90;;;;;;5047594;28;20575;-67
2024/02/15 02:03:21;;;;;;;10.48;3.63;;;10.50;99.90;;;;;;5045725;28;20170;-67
2024/02/15 02:05:47;;;;;;;10.68;3.38;;;10.50;99.90;;;;;;5047742;28;20037;-67
2024/02/15 02:08:12;;;;;;;8.55;3.50;;;10.50;99.90;;;;;;5046136;28;20068;-67
2024/02/15 02:10:38;;;;;;;7.97;3.50;;;10.50;99.90;;;;;;5043727;28;20162;-67
2024/02/15 02:13:05;;;;;;;7.95;3.75;;;10.50;99.90;;;;;;5044647;28;20123;-67
2024/02/15 02:15:34;;;;;;;8.65;3.28;;;10.50;99.90;;;;;;5046142;28;20494;-67
2024/02/15 02:18:00;;;;;;;7.40;3.15;;;10.50;99.90;;;;;;5045284;28;20517;-67
2024/02/15 02:20:26;;;;;;;8.57;3.40;;;10.50;99.90;;;;;;5044766;28;20411;-67
2024/02/15 02:22:56;;;;;;;9.75;3.78;;;10.50;99.90;;;;;;5040926;28;20063;-67
2024/02/15 02:25:22;;;;;;;9.32;3.53;;;10.50;99.90;;;;;;5029722;28;20173;-67
2024/02/15 02:27:49;;;;;;;9.57;3.60;;;10.50;99.90;;;;;;5044625;28;20029;-67
2024/02/15 02:30:18;;;;;;;7.35;3.25;;;10.60;99.90;;;;;;5044802;28;20471;-67
2024/02/15 02:32:47;;;;;;;7.43;3.38;;;10.60;99.90;;;;;;5045738;28;20467;-67
2024/02/15 02:35:13;;;;;;;6.82;2.95;;;10.50;99.90;;;;;;5036353;28;20428;-67
2024/02/15 02:37:42;;;;;;;8.40;3.83;;;10.50;99.90;;;;;;5044273;28;20037;-67
2024/02/15 02:40:09;;;;;;;7.43;3.50;;;10.50;99.90;;;;;;5043018;28;20025;-67
2024/02/15 02:42:51;;;;;;;7.78;3.28;;;10.60;99.90;;;;;;5043866;28;20430;-67
2024/02/15 02:45:16;;;;;;;7.40;3.58;;;10.60;99.90;;;;;;5044138;28;20056;-67
2024/02/15 02:47:42;;;;;;;7.70;3.63;;;10.60;99.90;;;;;;5046233;28;20065;-67
2024/02/15 02:50:08;;;;;;;9.13;4.07;;;10.60;99.90;;;;;;5044583;28;20043;-67
2024/02/15 02:52:33;;;;;;;8.38;3.58;;;10.60;99.90;;;;;;5049514;28;20028;-67
2024/02/15 02:54:59;;;;;;;9.27;3.70;;;10.60;99.90;;;;;;5045404;28;20464;-67
2024/02/15 02:57:24;;;;;;;8.15;3.97;;;10.50;99.90;;;;;;5052968;28;20394;-68
2024/02/15 02:59:51;;;;;;;6.70;2.97;;;10.60;99.90;;;;;;5045546;28;20032;-67
2024/02/15 03:02:17;;;;;;;9.07;4.07;;;10.60;99.90;;;;;;5054983;28;20068;-67
2024/02/15 03:04:43;;;;;;;7.30;3.17;;;10.60;99.90;;;;;;5045601;28;20040;-67
2024/02/15 03:07:09;;;;;;;10.07;4.47;;;10.60;99.90;;;;;;5041088;28;20029;-68
2024/02/15 03:09:37;;;;;;;8.98;3.78;;;10.60;99.90;;;;;;5042648;28;20486;-67
2024/02/15 03:12:03;;;;;;;8.35;3.53;;;10.60;99.90;;;;;;5042512;28;20426;-67
2024/02/15 03:14:30;;;;;;;6.60;3.05;;;10.60;99.90;;;;;;5049671;28;20364;-67
2024/02/15 03:16:55;;;;;;;8.15;3.35;;;10.60;99.90;;;;;;5048501;28;20056;-67
2024/02/15 03:19:22;;;;;;;7.65;3.05;;;10.60;99.90;;;;;;5045502;28;20033;-67
2024/02/15 03:21:48;;;;;;;8.32;3.45;;;10.60;99.90;;;;;;5044920;28;20114;-67
2024/02/15 03:24:13;;;;;;;9.60;4.43;;;10.50;99.90;;;;;;5048442;28;20186;-67
2024/02/15 03:26:40;;;;;;;10.00;3.30;;;10.60;99.90;;;;;;5048327;28;20032;-67
2024/02/15 03:29:07;;;;;;;8.25;4.22;;;10.60;99.90;;;;;;5049153;28;20112;-68
2024/02/15 03:31:33;;;;;;;8.52;3.65;;;10.60;99.90;;;;;;5045995;28;20037;-67
2024/02/15 03:33:59;;;;;;;8.18;3.55;;;10.60;99.90;;;;;;5036855;28;20056;-67
2024/02/15 03:36:24;;;;;;;7.80;3.40;;;10.60;99.90;;;;;;5045474;28;20029;-67
2024/02/15 03:38:52;;;;;;;8.18;3.58;;;10.60;99.90;;;;;;5046991;28;20055;-67
2024/02/15 03:41:18;;;;;;;9.25;3.78;;;10.60;99.90;;;;;;5045155;28;20562;-67
2024/02/15 03:43:43;;;;;;;9.82;3.83;;;10.60;99.90;;;;;;5048682;28;20119;-67
2024/02/15 03:46:12;;;;;;;9.93;4.20;;;10.60;99.90;;;;;;5044590;28;21613;-67
2024/02/15 03:48:37;;;;;;;10.27;4.63;;;10.60;99.90;;;;;;5052149;28;20482;-67
2024/02/15 03:51:03;;;;;;;8.38;3.95;;;10.60;99.90;;;;;;5046323;28;20072;-67
2024/02/15 03:53:31;;;;;;;10.88;3.88;;;10.60;99.90;;;;;;5050246;28;20029;-68
2024/02/15 03:55:56;;;;;;;7.90;4.35;;;10.60;99.90;;;;;;5048969;28;20143;-67
2024/02/15 03:58:22;;;;;;;9.27;3.88;;;10.60;99.90;;;;;;5057236;28;20116;-67
2024/02/15 04:00:48;;;;;;;10.18;4.10;;;10.60;99.90;;;;;;5057590;28;22284;-67
2024/02/15 04:03:13;;;;;;;7.60;3.67;;;10.60;99.90;;;;;;5050320;28;20479;-68
2024/02/15 04:05:39;;;;;;;9.50;3.42;;;10.60;99.90;;;;;;5057322;28;20029;-67
2024/02/15 04:08:05;;;;;;;8.90;4.05;;;10.60;99.90;;;;;;5046465;28;20422;-67
2024/02/15 04:10:30;;;;;;;8.38;3.75;;;10.60;99.90;;;;;;5053155;28;20360;-67
2024/02/15 04:12:57;;;;;;;10.73;4.05;;;10.60;99.90;;;;;;5046663;28;20501;-67
2024/02/15 04:15:23;;;;;;;9.35;3.55;;;10.60;99.90;;;;;;5053874;28;20044;-67
2024/02/15 04:17:55;;;;;;;10.93;5.00;;;10.60;99.90;;;;;;5051001;28;20051;-67
2024/02/15 04:20:21;;;;;;;9.13;4.82;;;10.60;99.90;;;;;;5050871;28;20025;-67
2024/02/15 04:22:47;;;;;;;8.57;3.92;;;10.60;99.90;;;;;;5045014;28;20108;-67
2024/02/15 04:25:16;;;;;;;9.75;3.85;;;10.60;99.90;;;;;;5052581;28;20060;-68
2024/02/15 04:27:42;;;;;;;9.10;4.22;;;10.60;99.90;;;;;;5055814;28;20378;-67
2024/02/15 04:30:08;;;;;;;9.65;4.25;;;10.60;99.90;;;;;;5051966;28;20439;-67
2024/02/15 04:32:35;;;;;;;8.35;4.10;;;10.60;99.90;;;;;;5055229;28;20021;-67
2024/02/15 04:35:01;;;;;;;12.30;5.13;;;10.60;99.90;;;;;;5052088;28;20124;-68
2024/02/15 04:37:28;;;;;;;11.02;4.70;;;10.60;99.90;;;;;;5059408;28;20399;-67
2024/02/15 04:39:54;;;;;;;8.50;3.95;;;10.60;99.90;;;;;;5050606;28;20029;-67
2024/02/15 04:42:20;;;;;;;9.88;3.92;;;10.60;99.90;;;;;;5041751;28;20102;-67
2024/02/15 04:44:45;;;;;;;11.88;3.97;;;10.60;99.90;;;;;;5055303;28;20395;-67
2024/02/15 04:47:11;;;;;;;9.27;3.60;;;10.60;99.90;;;;;;5055275;28;20408;-67
2024/02/15 04:49:38;;;;;;;10.95;4.32;;;10.60;99.90;;;;;;5054626;28;20044;-67
2024/02/15 04:52:05;;;;;;;10.52;3.72;;;10.60;99.90;;;;;;5047312;28;20019;-67
2024/02/15 04:54:32;;;;;;;10.63;5.00;;;10.60;99.90;;;;;;5050241;28;20029;-68
2024/02/15 04:56:58;;;;;;;9.52;4.05;;;10.60;99.90;;;;;;5045558;28;20282;-68
2024/02/15 04:59:25;;;;;;;7.95;3.97;;;10.60;99.90;;;;;;5048096;28;20402;-67
2024/02/15 05:01:52;;;;;;;10.05;4.57;;;10.60;99.90;;;;;;5053059;28;20464;-68
2024/02/15 05:04:17;;;;;;;8.25;3.38;;;10.60;99.90;;;;;;5047245;28;20412;-68
2024/02/15 05:06:44;;;;;;;8.20;3.60;;;10.60;99.90;;;;;;5045982;28;20033;-67
2024/02/15 05:09:10;;;;;;;9.35;3.97;;;10.60;99.90;;;;;;5044645;28;20105;-67
2024/02/15 05:11:47;;;;;;;7.65;3.55;;;10.60;99.90;;;;;;5043689;28;20175;-67
2024/02/15 05:14:18;;;;;;;8.82;3.50;;;10.60;99.90;;;;;;5052958;28;20082;-67
2024/02/15 05:16:50;;;;;;;11.38;4.00;;;10.60;99.90;;;;;;5051385;28;20068;-68
2024/02/15 05:19:16;;;;;;;10.48;4.05;;;10.60;99.90;;;;;;5059112;28;20040;-68
2024/02/15 05:21:44;;;;;;;11.73;4.18;;;10.60;99.90;;;;;;5042975;28;20151;-68
2024/02/15 05:24:13;;;;;;;9.98;3.67;;;10.60;99.90;;;;;;5049448;28;20033;-68
2024/02/15 05:26:39;;;;;;;8.45;4.35;;;10.60;99.90;;;;;;5044655;28;20140;-68
2024/02/15 05:29:05;;;;;;;13.50;5.07;;;10.50;99.90;;;;;;5044068;28;20332;-67
2024/02/15 05:31:30;;;;;;;9.70;4.30;;;10.50;99.90;;;;;;5047569;28;20039;-68
2024/02/15 05:33:57;;;;;;;8.65;3.90;;;10.60;99.90;;;;;;5044006;28;20458;-66
2024/02/15 05:36:25;;;;;;;10.10;3.80;;;10.60;99.90;;;;;;5043924;28;20099;-66
2024/02/15 05:38:53;;;;;;;11.20;4.50;;;10.50;99.90;;;;;;5046646;28;20092;-67
2024/02/15 05:41:20;;;;;;;12.77;3.80;;;10.50;99.90;;;;;;5046181;28;20041;-67
2024/02/15 05:43:48;;;;;;;9.85;3.78;;;10.50;99.90;;;;;;5042214;28;20116;-67
2024/02/15 05:46:14;;;;;;;9.55;3.67;;;10.60;99.90;;;;;;5046325;28;20031;-67
2024/02/15 05:48:40;;;;;;;9.98;4.35;;;10.50;99.90;;;;;;5046287;28;20363;-67
2024/02/15 05:51:08;;;;;;;7.55;3.65;;;10.50;99.90;;;;;;5046669;28;20025;-67
2024/02/15 05:53:35;;;;;;;11.65;3.95;;;10.50;99.90;;;;;;5044157;28;20025;-67
2024/02/15 05:56:01;;;;;;;8.45;3.65;;;10.50;99.90;;;;;;5045299;28;20039;-67
2024/02/15 05:58:27;;;;;;;11.40;4.55;;;10.50;99.90;;;;;;5044445;28;20033;-67
2024/02/15 06:00:53;;;;;;;10.95;4.45;;;10.50;99.90;;;;;;5045588;28;20099;-68
2024/02/15 06:03:22;;;;;;;11.45;4.47;;;10.50;99.90;;;;;;5045539;28;20087;-67
2024/02/15 06:05:48;;;;;;;9.25;4.93;;;10.50;99.90;;;;;;5045386;28;20068;-67
2024/02/15 06:08:13;;;;;;;9.75;4.30;;;10.60;99.90;;;;;;5045817;28;20068;-67
2024/02/15 06:10:40;;;;;;;10.45;4.82;;;10.50;99.90;;;;;;5045334;28;20108;-67
2024/02/15 06:13:08;;;;;;;10.23;3.90;;;10.50;99.90;;;;;;5041283;28;20025;-67
2024/02/15 06:15:34;;;;;;;9.65;4.03;;;10.50;99.90;;;;;;5043409;28;20045;-67
2024/02/15 06:17:59;;;;;;;13.30;4.72;;;10.50;99.90;;;;;;5047059;28;20036;-67
2024/02/15 06:20:28;;;;;;;14.43;5.00;;;10.50;99.90;;;;;;5043434;28;20120;-67
2024/02/15 06:22:54;;;;;;;10.65;4.78;;;10.50;99.90;;;;;;5044450;28;20040;-67
2024/02/15 06:25:20;;;;;;;10.10;4.15;;;10.50;99.90;;;;;;5044122;28;20040;-66
2024/02/15 06:27:46;;;;;;;14.10;5.38;;;10.50;99.90;;;;;;5043514;28;20089;-67
2024/02/15 06:41:11;;;;;;;8.95;4.03;;;10.50;99.90;;;;;;5043232;28;20039;-67
2024/02/15 06:43:37;;;;;;;9.02;4.32;;;10.50;99.90;;;;;;5050948;28;20045;-68
2024/02/15 06:46:06;;;;;;;10.75;3.72;;;10.50;99.90;;;;;;5045610;28;20057;-67
2024/02/15 06:48:31;;;;;;;9.15;4.30;;;10.50;99.90;;;;;;5046941;28;20103;-67
2024/02/15 06:50:57;;;;;;;8.23;3.65;;;10.50;99.90;;;;;;5052446;28;20447;-68
2024/02/15 06:53:24;;;;;;;9.57;4.32;;;10.60;99.90;;;;;;5046176;28;20025;-67
2024/02/15 06:55:50;;;;;;;8.90;3.90;;;10.60;99.90;;;;;;5037507;28;20390;-67
2024/02/15 06:58:16;;;;;;;7.72;3.67;;;10.50;99.90;;;;;;5042123;28;20028;-67
2024/02/15 07:00:42;;;;;;;8.20;3.60;;;10.60;99.90;;;;;;5044638;28;20021;-67
2024/02/15 07:03:08;;;;;;;10.02;3.80;;;10.60;99.90;;;;;;5048447;28;20053;-67
2024/02/15 07:05:34;;;;;;;9.90;2.97;;;10.50;99.90;;;;;;5040644;28;20112;-67
2024/02/15 07:08:00;;;;;;;5.80;2.55;;;10.60;99.90;;;;;;5047126;28;20187;-67
2024/02/15 07:10:26;;;;;;;9.10;3.55;;;10.60;99.90;;;;;;5045983;28;20025;-67
2024/02/15 07:12:51;;;;;;;10.40;3.05;;;10.60;99.90;;;;;;5037276;28;20029;-67
2024/02/15 07:15:17;;;;;;;7.90;3.33;;;10.60;99.90;;;;;;5038076;28;20052;-68
2024/02/15 07:17:43;;;;;;;7.25;3.15;;;10.60;99.90;;;;;;5053650;28;20033;-67
2024/02/15 07:20:11;;;;;;;7.70;2.97;;;10.60;99.90;;;;;;5044356;28;20041;-67
2024/02/15 07:22:38;;;;;;;8.50;3.15;;;10.60;99.90;;;;;;5044397;28;20052;-67
2024/02/15 07:25:04;;;;;;;6.65;3.05;;;10.60;99.90;;;;;;5043799;28;20331;-68
2024/02/15 07:27:30;;;;;;;8.93;3.42;;;10.60;99.90;;;;;;5044874;28;20109;-66
2024/02/15 07:29:56;;;;;;;7.88;2.97;;;10.60;99.90;;;;;;5043797;28;20151;-67
2024/02/15 07:32:21;;;;;;;9.23;2.55;;;10.50;99.90;;;;;;5042219;28;20052;-68
2024/02/15 07:34:47;;;;;;;8.18;3.42;;;10.50;99.90;;;;;;5048250;28;20033;-67
2024/02/15 07:37:15;;;;;;;8.48;2.95;;;10.60;99.90;;;;;;5052544;28;20128;-67
2024/02/15 07:39:40;;;;;;;6.68;2.53;;;10.60;99.90;;;;;;5045888;28;20034;-66
2024/02/15 07:42:08;;;;;;;8.60;2.88;;;10.60;99.90;;;;;;5047068;28;20037;-67
2024/02/15 07:44:36;;;;;;;8.18;2.95;;;10.60;99.90;;;;;;5047873;28;20064;-66
2024/02/15 07:47:02;;;;;;;6.30;3.00;;;10.60;99.90;;;;;;5048535;28;20041;-67
2024/02/15 07:49:28;;;;;;;6.95;2.75;;;10.60;99.90;;;;;;5049591;28;20033;-67
2024/02/15 07:51:53;;;;;;;7.50;3.10;;;10.60;99.90;;;;;;5048360;28;20092;-67
2024/02/15 07:54:22;;;;;;;6.03;2.08;;;10.60;99.90;;;;;;5052696;28;20518;-67
2024/02/15 07:56:49;;;;;;;4.80;1.70;;;10.60;99.90;;;;;;5042187;28;20040;-67
2024/02/15 07:59:18;;;;;;;5.82;2.28;;;10.60;99.90;;;;;;5043763;28;20052;-68
2024/02/15 08:01:47;;;;;;;6.40;2.58;;;10.60;99.90;;;;;;5042482;28;20025;-67
2024/02/15 08:04:13;;;;;;;4.93;2.47;;;10.60;99.90;;;;;;5043965;28;20127;-67
2024/02/15 08:06:38;;;;;;;5.85;2.38;;;10.60;99.90;;;;;;5046676;28;20072;-67
2024/02/15 08:09:07;;;;;;;7.55;3.05;;;10.60;99.90;;;;;;5049928;28;20106;-67
2024/02/15 08:11:32;;;;;;;5.38;2.17;;;10.60;99.90;;;;;;5045468;28;20143;-67
2024/02/15 08:13:59;;;;;;;4.95;2.25;;;10.60;99.90;;;;;;5050222;28;20029;-68
2024/02/15 08:16:27;;;;;;;7.22;2.75;;;10.70;99.90;;;;;;5044841;28;20424;-67
2024/02/15 08:18:54;;;;;;;7.00;2.70;;;10.70;99.90;;;;;;5048614;28;20029;-67
2024/02/15 08:21:41;;;;;;;6.50;2.38;;;10.70;99.90;;;;;;5044659;28;20070;-67
2024/02/15 08:24:06;;;;;;;4.95;2.55;;;10.80;99.90;;;;;;5049011;28;20061;-67
2024/02/15 08:26:32;;;;;;;6.82;2.90;;;10.80;99.90;;;;;;5042154;28;20095;-67
2024/02/15 08:28:58;;;;;;;6.10;2.67;;;10.80;99.90;;;;;;5049485;28;20112;-67
2024/02/15 08:31:24;;;;;;;7.35;3.20;;;10.90;99.90;;;;;;5049893;28;20108;-68
2024/02/15 08:33:49;;;;;;;10.07;3.17;;;10.90;99.90;;;;;;5044011;28;20030;-67
2024/02/15 08:36:15;;;;;;;7.00;3.25;;;10.90;99.90;;;;;;5045544;28;20056;-67
2024/02/15 08:38:43;;;;;;;8.85;3.15;;;10.90;99.90;;;;;;5046724;28;20143;-66
2024/02/15 08:41:11;;;;;;;7.43;3.70;;;10.90;99.90;;;;;;5040174;28;20135;-67
2024/02/15 08:43:39;;;;;;;6.60;3.55;;;10.90;99.90;;;;;;5045458;28;20037;-71
2024/02/15 08:46:06;;;;;;;9.98;4.30;;;10.90;99.90;;;;;;5046266;28;20105;-68
2024/02/15 08:48:32;;;;;;;8.23;3.67;;;10.90;99.90;;;;;;5027889;28;20029;-68
2024/02/15 08:50:57;;;;;;;7.15;3.47;;;10.90;99.90;;;;;;5049171;28;20040;-70
2024/02/15 08:53:24;;;;;;;7.38;3.35;;;10.90;99.90;;;;;;5045216;28;20550;-69
2024/02/15 08:55:50;;;;;;;6.85;3.25;;;10.80;99.90;;;;;;5043552;28;20029;-69
2024/02/15 08:58:15;;;;;;;6.45;3.17;;;10.90;99.90;;;;;;5046003;28;20379;-68
2024/02/15 09:00:44;;;;;;;7.25;3.53;;;10.80;99.90;;;;;;5046717;28;20021;-69
2024/02/15 09:03:13;;;;;;;7.20;3.90;;;10.80;99.90;;;;;;5033688;28;20031;-68
2024/02/15 09:05:43;;;;;;;8.75;4.03;;;10.80;99.90;;;;;;5050044;28;20094;-69
2024/02/15 09:08:08;;;;;;;9.32;4.50;;;10.80;99.90;;;;;;5047565;28;20029;-68
2024/02/15 09:10:36;;;;;;;8.77;4.82;;;10.80;99.90;;;;;;5047719;28;20028;-68
2024/02/15 09:13:02;;;;;;;8.18;4.25;;;10.90;99.90;;;;;;5046690;28;20048;-68
2024/02/15 09:15:30;;;;;;;10.05;4.38;;;10.90;99.90;;;;;;5052754;28;20102;-68
2024/02/15 09:17:57;;;;;;;11.48;4.57;;;10.90;99.90;;;;;;5049378;28;20107;-68
2024/02/15 09:20:27;;;;;;;8.02;3.90;;;11.00;99.90;;;;;;5042646;28;20053;-67
2024/02/15 09:22:57;;;;;;;11.13;4.35;;;11.00;99.90;;;;;;5042717;28;20121;-67
2024/02/15 09:25:23;;;;;;;11.60;5.03;;;10.90;99.90;;;;;;5048060;28;20040;-67
2024/02/15 09:27:49;;;;;;;10.23;5.10;;;10.90;99.90;;;;;;5044298;28;20071;-67
2024/02/15 09:30:15;;;;;;;9.60;4.82;;;11.00;99.90;;;;;;5043846;28;20052;-68
2024/02/15 09:32:41;;;;;;;10.35;5.07;;;11.00;99.90;;;;;;5046441;28;20025;-67
2024/02/15 09:35:08;;;;;;;12.07;4.93;;;11.00;99.90;;;;;;5047838;28;20212;-68
2024/02/15 09:37:43;;;;;;;11.20;5.20;;;11.00;99.90;;;;;;5049812;28;20182;-67
2024/02/15 09:40:11;;;;;;;11.60;5.47;;;11.00;99.90;;;;;;5046782;28;20082;-68
2024/02/15 09:42:39;;;;;;;10.20;5.65;;;11.00;99.90;;;;;;5051187;28;20053;-67
2024/02/15 09:45:05;;;;;;;11.80;5.20;;;11.00;99.90;;;;;;5055379;28;20033;-67
2024/02/15 09:47:36;;;;;;;9.68;4.85;;;11.00;99.90;;;;;;5046666;28;20044;-67
2024/02/15 09:50:02;;;;;;;;;;;11.10;99.90;;;;;;5056702;28;20048;-66
2024/02/15 09:52:31;;;;;;;10.43;4.85;;;11.10;99.90;;;;;;5043342;28;19916;-67
2024/02/15 09:54:59;;;;;;;12.15;5.72;;;11.10;99.90;;;;;;5051201;28;20047;-67
2024/02/15 09:57:27;;;;;;;10.93;6.25;;;11.10;99.90;;;;;;5039444;28;20029;-69
2024/02/15 09:59:53;;;;;;;15.60;7.45;;;11.10;99.90;;;;;;5042564;28;20097;-67
2024/02/15 10:02:20;;;;;;;11.40;6.03;;;11.10;99.90;;;;;;5046471;28;20044;-67
2024/02/15 10:04:46;;;;;;;15.10;7.55;;;11.20;99.90;;;;;;5055711;28;20073;-67
2024/02/15 10:07:13;;;;;;;16.13;6.15;;;11.20;99.90;;;;;;5045985;28;20344;-66
2024/02/15 10:09:42;;;;;;;13.45;6.03;;;11.20;99.90;;;;;;5049625;28;20024;-66
2024/02/15 10:12:09;;;;;;;12.73;6.03;;;11.20;99.90;;;;;;5041213;28;20489;-66
2024/02/15 10:14:35;;;;;;;16.15;6.65;;;11.20;99.90;;;;;;5050384;28;20162;-67
2024/02/15 10:17:09;;;;;;;13.30;6.07;;;11.20;99.90;;;;;;5046450;28;20066;-66
2024/02/15 10:19:35;;;;;;;14.75;6.38;;;11.30;99.90;;;;;;5045409;28;20644;-67
2024/02/15 10:22:07;;;;;;;15.25;7.00;;;11.30;99.90;;;;;;5049395;28;20119;-67
2024/02/15 10:24:32;;;;;;;17.98;7.07;;;11.40;99.90;;;;;;5029876;28;20118;-68
2024/02/15 10:27:06;;;;;;;16.15;7.45;;;11.40;99.90;;;;;;5043856;28;20495;-68
2024/02/15 10:29:36;;;;;;;13.30;6.28;;;11.50;99.90;;;;;;5043096;28;20044;-68
2024/02/15 10:32:03;;;;;;;12.00;6.50;;;11.40;99.90;;;;;;5044308;28;20126;-67
2024/02/15 10:34:33;;;;;;;15.50;7.25;;;11.50;99.90;;;;;;5042262;28;20057;-66
2024/02/15 10:37:12;;;;;;;14.18;7.15;;;11.40;99.90;;;;;;5039160;28;20033;-68
2024/02/15 10:39:38;;;;;;;18.27;7.35;;;11.40;99.90;;;;;;5032851;28;20040;-68
2024/02/15 10:42:06;;;;;;;15.05;6.75;;;11.40;99.90;;;;;;5040079;28;20466;-67
2024/02/15 10:44:34;;;;;;;14.43;6.72;;;11.40;99.90;;;;;;5054348;28;20198;-67
2024/02/15 10:47:06;;;;;;;17.17;7.43;;;11.40;99.90;;;;;;5027147;28;20313;-66
2024/02/15 10:49:31;;;;;;;17.60;7.32;;;11.40;99.90;;;;;;5049275;28;20428;-67
2024/02/15 10:51:58;;;;;;;11.77;6.93;;;11.40;99.90;;;;;;5050918;28;20056;-67
2024/02/15 10:54:48;;;;;;;13.65;6.35;;;11.40;99.90;;;;;;5053395;28;20040;-67
2024/02/15 10:57:17;;;;;;;15.80;6.90;;;11.30;99.90;;;;;;5046088;28;20052;-67
2024/02/15 10:59:57;;;;;;;13.95;7.93;;;11.30;99.90;;;;;;5047424;28;20032;-68
2024/02/15 11:02:32;;;;;;;13.18;6.43;;;11.30;99.90;;;;;;5044561;28;20532;-67
2024/02/15 11:05:06;;;;;;;14.10;7.25;;;11.30;99.90;;;;;;5049936;28;20032;-67
2024/02/15 11:07:32;;;;;;;14.80;6.82;;;11.30;99.90;;;;;;5045225;28;20092;-67
2024/02/15 11:09:58;;;;;;;15.82;6.85;;;11.30;99.90;;;;;;5047810;28;20447;-67
2024/02/15 11:12:28;;;;;;;12.55;6.20;;;11.30;99.90;;;;;;5046313;28;20029;-67
2024/02/15 11:14:54;;;;;;;13.43;6.30;;;11.30;99.90;;;;;;5047502;28;20029;-67
2024/02/15 11:17:39;;;;;;;10.63;5.82;;;11.30;99.90;;;;;;5048167;28;20126;-66
2024/02/15 11:20:10;;;;;;;12.45;6.53;;;11.30;99.90;;;;;;5057948;28;20127;-66
2024/02/15 11:22:36;;;;;;;;;;;11.30;99.90;;;;;;5034194;28;20120;-67
2024/02/15 11:25:11;;;;;;;9.38;4.50;;;11.30;99.90;;;;;;5051137;28;20430;-67
2024/02/15 11:27:40;;;;;;;19.35;6.10;;;11.30;99.90;;;;;;5047157;28;20460;-68
2024/02/15 11:30:09;;;;;;;9.60;4.47;;;11.30;99.90;;;;;;5052694;28;20075;-67
2024/02/15 11:32:53;;;;;;;10.90;5.72;;;11.30;99.90;;;;;;5044803;28;20032;-68
2024/02/15 11:35:23;;;;;;;9.45;4.70;;;11.30;99.90;;;;;;5048298;28;20104;-67
2024/02/15 11:37:55;;;;;;;11.98;4.97;;;11.30;99.90;;;;;;5049872;28;20037;-68
2024/02/15 11:40:26;;;;;;;10.85;4.93;;;11.30;99.90;;;;;;5059002;28;20124;-69
2024/02/15 11:42:54;;;;;;;7.97;4.22;;;11.20;99.90;;;;;;5048372;28;20359;-68
2024/02/15 11:45:20;;;;;;;11.95;4.45;;;11.30;99.90;;;;;;5054184;28;20470;-68
2024/02/15 11:47:50;;;;;;;8.40;4.35;;;11.30;99.90;;;;;;5028385;28;20040;-68
2024/02/15 11:50:20;;;;;;;7.50;3.73;;;11.30;99.90;;;;;;5044696;28;20106;-68
2024/02/15 11:52:48;;;;;;;8.35;3.90;;;11.30;99.90;;;;;;5045550;28;20370;-68
2024/02/15 11:55:18;;;;;;;6.07;3.22;;;11.30;99.90;;;;;;5045756;28;20102;-68
2024/02/15 11:58:02;;;;;;;8.85;3.95;;;11.30;99.90;;;;;;5054667;28;20420;-68
2024/02/15 12:19:53;;;;;;;5.30;2.63;;;11.20;99.90;;;;;;5043077;28;20036;-70
2024/02/15 12:22:22;;;;;;;5.25;2.97;;;11.20;99.90;;;;;;5051395;28;20168;-68
2024/02/15 12:24:58;;;;;;;5.75;2.70;;;11.20;99.90;;;;;;5047077;28;20029;-67
2024/02/15 12:27:27;;;;;;;7.05;3.40;;;11.20;99.90;;;;;;5049383;28;20344;-69
2024/02/15 12:29:57;;;;;;;5.00;2.63;;;11.20;99.90;;;;;;5048035;28;20175;-68
2024/02/15 12:32:24;;;;;;;5.25;2.65;;;11.20;99.90;;;;;;5049707;28;20017;-68
2024/02/15 12:34:54;;;;;;;7.70;3.45;;;11.20;99.90;;;;;;5041467;28;20402;-69
2024/02/15 12:37:21;;;;;;;4.75;2.42;;;11.20;99.90;;;;;;5048224;28;20021;-68
2024/02/15 12:39:50;;;;;;;4.32;2.75;;;11.30;99.90;;;;;;5046185;28;20132;-69
2024/02/15 12:42:20;;;;;;;7.07;3.03;;;11.20;99.90;;;;;;5045087;28;20044;-66
2024/02/15 12:44:48;;;;;;;6.07;2.70;;;11.20;99.90;;;;;;5059959;28;20163;-69
2024/02/15 12:47:24;;;;;;;5.65;3.17;;;11.20;99.90;;;;;;5044619;28;20098;-68
2024/02/15 12:49:50;;;;;;;6.57;2.72;;;11.20;99.90;;;;;;5043295;28;20033;-69
2024/02/15 12:52:36;;;;;;;5.13;2.67;;;11.20;99.90;;;;;;5046496;28;20071;-69
2024/02/15 12:55:13;;;;;;;5.10;2.58;;;11.20;99.90;;;;;;5045073;28;20223;-69
2024/02/15 12:57:41;;;;;;;6.25;3.33;;;11.20;99.90;;;;;;5038616;28;20467;-69
2024/02/15 13:00:10;;;;;;;5.60;2.88;;;11.30;99.90;;;;;;5045924;28;20021;-69
2024/02/15 13:02:37;;;;;;;5.85;2.88;;;11.30;99.90;;;;;;5030977;28;20158;-69
2024/02/15 13:05:04;;;;;;;4.93;2.97;;;11.20;99.90;;;;;;5040070;28;20135;-68
2024/02/15 13:07:30;;;;;;;6.35;3.42;;;11.20;99.90;;;;;;5049033;28;20036;-68
2024/02/15 13:09:56;;;;;;;4.45;2.90;;;11.30;99.90;;;;;;5044265;28;20037;-68
2024/02/15 13:12:21;;;;;;;5.05;2.75;;;11.30;99.90;;;;;;5046060;28;20336;-69
2024/02/15 13:14:47;;;;;;;4.68;2.33;;;11.30;99.90;;;;;;5043795;28;20085;-69